createdAt,value
2023-01-09T00:01:16.997Z,7.42
2023-01-09T00:03:24.704Z,7.43
2023-01-09T00:05:30.552Z,7.46
2023-01-09T00:07:35.427Z,7.46
2023-01-09T00:09:40.696Z,7.48
2023-01-09T00:11:45.571Z,7.58
2023-01-09T00:13:50.889Z,7.56
2023-01-09T00:15:55.804Z,7.55
2023-01-09T00:18:00.724Z,7.59
2023-01-09T00:20:12.219Z,7.54
2023-01-09T00:22:17.528Z,7.53
2023-01-09T00:24:22.623Z,7.55
2023-01-09T00:26:27.551Z,7.56
2023-01-09T00:28:33.614Z,7.52
2023-01-09T00:30:38.901Z,7.51
2023-01-09T00:32:44.367Z,7.48
2023-01-09T00:34:50.401Z,7.44
2023-01-09T00:36:57.929Z,7.46
2023-01-09T00:39:02.809Z,7.38
2023-01-09T00:41:12.775Z,7.40
2023-01-09T00:43:18.444Z,7.47
2023-01-09T00:45:29.185Z,7.45
2023-01-09T00:47:40.892Z,7.42
2023-01-09T00:49:47.602Z,7.41
2023-01-09T00:51:53.518Z,7.41
2023-01-09T00:54:01.805Z,7.36
2023-01-09T00:56:12.700Z,7.34
2023-01-09T00:58:18.646Z,7.35
2023-01-09T01:00:23.931Z,7.34
2023-01-09T01:02:29.458Z,7.39
2023-01-09T01:04:47.622Z,7.38
2023-01-09T01:07:05.073Z,7.32
2023-01-09T01:09:12.632Z,7.28
2023-01-09T01:11:18.616Z,7.29
2023-01-09T01:13:23.533Z,7.26
2023-01-09T01:15:29.946Z,7.23
2023-01-09T01:17:37.304Z,7.24
2023-01-09T01:19:42.219Z,7.24
2023-01-09T01:21:48.441Z,7.21
2023-01-09T01:23:53.327Z,7.22
2023-01-09T01:26:06.538Z,7.20
2023-01-09T01:28:12.753Z,7.23
2023-01-09T01:30:19.954Z,7.21
2023-01-09T01:32:25.113Z,7.20
2023-01-09T01:34:31.444Z,7.18
2023-01-09T01:36:37.200Z,7.18
2023-01-09T01:38:42.101Z,7.17
2023-01-09T01:40:47.571Z,7.16
2023-01-09T01:42:57.912Z,7.15
2023-01-09T01:45:09.888Z,7.16
2023-01-09T01:47:15.271Z,7.17
2023-01-09T01:49:20.756Z,7.12
2023-01-09T01:51:29.140Z,7.13
2023-01-09T01:53:39.130Z,7.12
2023-01-09T01:55:49.648Z,7.11
2023-01-09T01:58:01.926Z,7.11
2023-01-09T02:00:09.703Z,7.11
2023-01-09T02:02:15.593Z,7.16
2023-01-09T02:04:21.754Z,7.15
2023-01-09T02:06:27.409Z,7.15
2023-01-09T02:08:32.477Z,7.15
2023-01-09T02:10:37.960Z,7.17
2023-01-09T02:12:43.463Z,7.14
2023-01-09T02:14:53.051Z,7.16
2023-01-09T02:17:13.027Z,7.12
2023-01-09T02:19:50.757Z,7.09
2023-01-09T02:22:15.122Z,7.09
2023-01-09T02:24:52.505Z,7.11
2023-01-09T02:27:35.620Z,7.16
2023-01-09T02:30:24.072Z,7.15
2023-01-09T02:32:46.881Z,7.14
2023-01-09T02:35:07.936Z,7.14
2023-01-09T02:37:23.209Z,7.15
2023-01-09T02:39:49.583Z,7.16
2023-01-09T02:42:04.139Z,7.23
2023-01-09T02:44:24.507Z,7.19
2023-01-09T02:46:32.322Z,7.21
2023-01-09T02:48:37.383Z,7.19
2023-01-09T02:50:50.799Z,7.22
2023-01-09T02:53:21.084Z,7.18
2023-01-09T02:55:41.796Z,7.20
2023-01-09T02:58:02.024Z,7.28
2023-01-09T03:00:20.987Z,7.29
2023-01-09T03:02:45.125Z,7.33
2023-01-09T03:05:04.529Z,7.34
2023-01-09T03:07:18.247Z,7.37
2023-01-09T03:09:29.518Z,7.35
2023-01-09T03:11:43.158Z,7.32
2023-01-09T03:13:54.357Z,7.34
2023-01-09T03:16:00.636Z,7.38
2023-01-09T03:18:13.070Z,7.39
2023-01-09T03:20:24.166Z,7.35
2023-01-09T03:22:29.272Z,7.34
2023-01-09T03:24:34.547Z,7.35
2023-01-09T03:26:39.810Z,7.33
2023-01-09T03:28:45.912Z,7.35
2023-01-09T03:30:50.821Z,7.38
2023-01-09T03:32:55.797Z,7.42
2023-01-09T03:35:03.304Z,7.48
2023-01-09T03:37:08.539Z,7.46
2023-01-09T03:39:13.452Z,7.46
2023-01-09T03:41:19.359Z,7.45
2023-01-09T03:43:24.662Z,7.48
2023-01-09T03:45:29.638Z,7.51
2023-01-09T03:47:34.732Z,7.49
2023-01-09T03:49:40.079Z,7.44
2023-01-09T03:51:47.766Z,7.35
2023-01-09T03:53:52.698Z,7.22
2023-01-09T03:55:59.747Z,7.21
2023-01-09T03:58:04.708Z,7.24
2023-01-09T04:00:14.479Z,7.17
2023-01-09T04:02:20.716Z,7.15
2023-01-09T04:04:25.628Z,7.18
2023-01-09T04:06:31.195Z,7.19
2023-01-09T04:08:38.943Z,7.24
2023-01-09T04:10:47.668Z,7.24
2023-01-09T04:12:53.034Z,7.24
2023-01-09T04:14:57.986Z,7.26
2023-01-09T04:17:03.096Z,7.29
2023-01-09T04:19:08.052Z,7.24
2023-01-09T04:21:12.973Z,7.28
2023-01-09T04:23:18.500Z,7.24
2023-01-09T04:25:26.866Z,7.23
2023-01-09T04:27:31.852Z,7.27
2023-01-09T04:29:36.778Z,7.30
2023-01-09T04:31:41.975Z,7.25
2023-01-09T04:33:47.211Z,7.25
2023-01-09T04:35:52.693Z,7.23
2023-01-09T04:37:57.594Z,7.23
2023-01-09T04:40:06.019Z,7.26
2023-01-09T04:42:14.204Z,7.27
2023-01-09T04:44:19.310Z,7.25
2023-01-09T04:46:24.316Z,7.30
2023-01-09T04:48:29.289Z,7.31
2023-01-09T04:50:34.259Z,7.31
2023-01-09T04:52:39.727Z,7.33
2023-01-09T04:54:44.667Z,7.32
2023-01-09T04:56:49.776Z,7.36
2023-01-09T04:58:57.292Z,7.28
2023-01-09T05:01:02.274Z,7.30
2023-01-09T05:03:07.619Z,7.29
2023-01-09T05:05:13.999Z,7.24
2023-01-09T05:07:19.369Z,7.19
2023-01-09T05:09:25.065Z,7.12
2023-01-09T05:11:30.396Z,7.02
2023-01-09T05:13:35.403Z,6.98
2023-01-09T05:15:42.916Z,6.93
2023-01-09T05:17:47.992Z,6.90
2023-01-09T05:19:53.328Z,6.90
2023-01-09T05:21:58.218Z,6.85
2023-01-09T05:24:03.157Z,6.77
2023-01-09T05:26:08.932Z,6.75
2023-01-09T05:28:14.499Z,6.71
2023-01-09T05:30:23.367Z,6.68
2023-01-09T05:32:30.885Z,6.70
2023-01-09T05:34:35.933Z,6.69
2023-01-09T05:36:40.911Z,6.63
2023-01-09T05:38:46.090Z,6.61
2023-01-09T05:40:54.605Z,6.64
2023-01-09T05:42:59.587Z,6.67
2023-01-09T05:45:05.233Z,6.62
2023-01-09T05:47:10.250Z,6.65
2023-01-09T05:49:18.507Z,6.61
2023-01-09T05:51:23.530Z,6.58
2023-01-09T05:53:28.601Z,6.55
2023-01-09T05:55:33.493Z,6.57
2023-01-09T05:57:38.428Z,6.52
2023-01-09T05:59:43.321Z,6.53
2023-01-09T06:01:48.575Z,6.54
2023-01-09T06:03:53.733Z,6.52
2023-01-09T06:06:01.289Z,6.54
2023-01-09T06:08:06.548Z,6.48
2023-01-09T06:10:14.725Z,6.41
2023-01-09T06:12:20.221Z,6.31
2023-01-09T06:14:25.543Z,6.23
2023-01-09T06:16:30.519Z,6.19
2023-01-09T06:18:35.446Z,6.11
2023-01-09T06:20:40.367Z,6.01
2023-01-09T06:22:48.328Z,5.92
2023-01-09T06:24:53.261Z,5.86
2023-01-09T06:26:58.342Z,5.90
2023-01-09T06:29:03.762Z,5.96
2023-01-09T06:31:09.008Z,5.94
2023-01-09T06:33:13.990Z,5.97
2023-01-09T06:35:20.854Z,5.94
2023-01-09T06:37:26.743Z,5.97
2023-01-09T06:39:34.234Z,6.05
2023-01-09T06:41:42.073Z,6.12
2023-01-09T06:43:47.029Z,6.17
2023-01-09T06:45:52.293Z,6.22
2023-01-09T06:47:57.266Z,6.22
2023-01-09T06:50:02.199Z,6.18
2023-01-09T06:52:08.048Z,6.11
2023-01-09T06:54:12.976Z,6.08
2023-01-09T06:56:20.513Z,6.09
2023-01-09T06:58:25.816Z,6.05
2023-01-09T07:00:31.522Z,6.01
2023-01-09T07:02:36.748Z,5.98
2023-01-09T07:04:41.654Z,6.02
2023-01-09T07:06:46.824Z,5.97
2023-01-09T07:08:53.261Z,5.93
2023-01-09T07:10:58.166Z,5.93
2023-01-09T07:13:06.262Z,5.96
2023-01-09T07:15:12.753Z,5.92
2023-01-09T07:17:17.784Z,5.96
2023-01-09T07:19:22.811Z,6.04
2023-01-09T07:21:28.026Z,6.09
2023-01-09T07:23:32.943Z,6.03
2023-01-09T07:25:38.519Z,5.98
2023-01-09T07:27:43.435Z,5.93
2023-01-09T07:29:51.333Z,5.91
2023-01-09T07:31:56.387Z,5.86
2023-01-09T07:34:01.314Z,5.86
2023-01-09T07:36:06.497Z,5.90
2023-01-09T07:38:11.505Z,5.92
2023-01-09T07:40:16.810Z,5.92
2023-01-09T07:42:21.744Z,5.89
2023-01-09T07:44:26.663Z,5.94
2023-01-09T07:46:34.610Z,5.99
2023-01-09T07:48:39.693Z,5.93
2023-01-09T07:50:44.663Z,5.92
2023-01-09T07:52:50.286Z,5.98
2023-01-09T07:54:55.216Z,5.97
2023-01-09T07:57:00.372Z,6.00
2023-01-09T07:59:05.381Z,6.05
2023-01-09T08:01:10.458Z,6.06
2023-01-09T08:03:18.056Z,6.11
2023-01-09T08:05:23.143Z,6.18
2023-01-09T08:07:28.115Z,6.16
2023-01-09T08:09:33.213Z,6.14
2023-01-09T08:11:38.169Z,6.15
2023-01-09T08:13:43.114Z,6.21
2023-01-09T08:15:48.132Z,6.23
2023-01-09T08:17:53.104Z,6.22
2023-01-09T08:20:00.617Z,6.25
2023-01-09T08:22:05.795Z,6.29
2023-01-09T08:24:12.660Z,6.31
2023-01-09T08:26:18.565Z,6.26
2023-01-09T08:28:24.769Z,6.20
2023-01-09T08:30:29.667Z,6.15
2023-01-09T08:32:34.589Z,6.15
2023-01-09T08:34:39.699Z,6.19
2023-01-09T08:36:47.282Z,6.13
2023-01-09T08:38:52.224Z,6.11
2023-01-09T08:40:57.305Z,6.10
2023-01-09T08:43:14.708Z,6.09
2023-01-09T08:45:32.292Z,6.12
2023-01-09T08:47:40.592Z,6.18
2023-01-09T08:49:45.537Z,6.14
2023-01-09T08:51:53.091Z,6.09
2023-01-09T08:53:58.084Z,6.06
2023-01-09T08:56:04.013Z,5.99
2023-01-09T08:58:09.358Z,5.99
2023-01-09T09:00:17.117Z,5.98
2023-01-09T09:02:22.095Z,5.96
2023-01-09T09:04:27.302Z,6.00
2023-01-09T09:06:32.269Z,6.03
2023-01-09T09:08:39.764Z,6.06
2023-01-09T09:10:45.339Z,6.11
2023-01-09T09:12:53.721Z,6.10
2023-01-09T09:15:11.437Z,6.15
2023-01-09T09:17:16.383Z,6.19
2023-01-09T09:19:21.444Z,6.21
2023-01-09T09:21:26.395Z,6.15
2023-01-09T09:23:31.312Z,6.14
2023-01-09T09:25:39.615Z,6.12
2023-01-09T09:27:45.248Z,6.11
2023-01-09T09:29:50.258Z,6.19
2023-01-09T09:31:55.190Z,6.07
2023-01-09T09:34:00.215Z,6.04
2023-01-09T09:36:05.149Z,6.05
2023-01-09T09:38:10.283Z,5.97
2023-01-09T09:40:25.354Z,5.96
2023-01-09T09:43:27.058Z,5.98
2023-01-09T09:45:43.353Z,6.03
2023-01-09T09:48:01.725Z,6.03
2023-01-09T09:50:36.156Z,6.00
2023-01-09T09:52:50.575Z,5.99
2023-01-09T09:54:56.621Z,5.98
2023-01-09T09:57:06.167Z,5.98
2023-01-09T09:59:21.143Z,6.02
2023-01-09T10:01:29.976Z,6.04
2023-01-09T10:03:39.125Z,6.07
2023-01-09T10:05:48.732Z,6.11
2023-01-09T10:07:56.267Z,6.09
2023-01-09T10:10:06.865Z,6.13
2023-01-09T10:12:28.002Z,6.19
2023-01-09T10:14:36.305Z,6.28
2023-01-09T10:17:06.702Z,6.33
2023-01-09T10:19:31.065Z,6.32
2023-01-09T10:21:43.589Z,6.39
2023-01-09T10:24:14.646Z,6.35
2023-01-09T10:26:28.260Z,6.34
2023-01-09T10:29:15.063Z,6.25
2023-01-09T10:31:33.908Z,6.23
2023-01-09T10:33:57.052Z,6.24
2023-01-09T10:36:42.884Z,6.24
2023-01-09T10:38:53.275Z,6.26
2023-01-09T10:41:04.228Z,6.27
2023-01-09T10:43:17.855Z,6.31
2023-01-09T10:45:28.701Z,6.30
2023-01-09T10:47:38.112Z,6.27
2023-01-09T10:49:43.228Z,6.29
2023-01-09T10:51:52.073Z,6.32
2023-01-09T10:53:59.203Z,6.32
2023-01-09T10:56:14.499Z,6.33
2023-01-09T10:58:22.001Z,6.38
2023-01-09T11:00:28.522Z,6.45
2023-01-09T11:02:38.523Z,6.53
2023-01-09T11:04:43.565Z,6.56
2023-01-09T11:06:52.842Z,6.61
2023-01-09T11:09:02.054Z,6.66
2023-01-09T11:11:07.525Z,6.67
2023-01-09T11:13:21.401Z,6.67
2023-01-09T11:15:33.988Z,6.68
2023-01-09T11:17:41.567Z,6.66
2023-01-09T11:20:05.720Z,6.67
2023-01-09T11:22:18.044Z,6.64
2023-01-09T11:24:32.026Z,6.56
2023-01-09T11:26:36.987Z,6.56
2023-01-09T11:28:43.872Z,6.54
2023-01-09T11:30:57.074Z,6.53
2023-01-09T11:33:18.482Z,6.48
2023-01-09T11:35:34.167Z,6.51
2023-01-09T11:37:39.660Z,6.51
2023-01-09T11:39:49.661Z,6.55
2023-01-09T11:41:58.334Z,6.58
2023-01-09T11:44:05.535Z,6.55
2023-01-09T11:46:15.059Z,6.57
2023-01-09T11:48:38.988Z,6.59
2023-01-09T11:50:55.263Z,6.56
2023-01-09T11:53:17.240Z,6.64
2023-01-09T11:55:27.260Z,6.71
2023-01-09T11:57:35.238Z,6.72
2023-01-09T11:59:40.812Z,6.75
2023-01-09T12:02:23.040Z,6.74
2023-01-09T12:04:37.742Z,6.82
2023-01-09T12:07:00.599Z,6.79
2023-01-09T12:09:07.814Z,6.77
2023-01-09T12:11:34.575Z,6.88
2023-01-09T12:14:01.922Z,6.86
2023-01-09T12:16:22.293Z,6.89
2023-01-09T12:18:48.199Z,6.87
2023-01-09T12:21:26.957Z,6.83
2023-01-09T12:23:50.031Z,6.83
2023-01-09T12:26:12.085Z,6.83
2023-01-09T12:28:52.678Z,6.88
2023-01-09T12:31:11.444Z,6.87
2023-01-09T12:33:35.048Z,6.81
2023-01-09T12:35:44.224Z,6.82
2023-01-09T12:38:22.344Z,6.86
2023-01-09T12:40:47.548Z,6.90
2023-01-09T12:43:00.122Z,6.95
2023-01-09T12:45:30.927Z,6.99
2023-01-09T12:47:49.318Z,7.02
2023-01-09T12:50:05.994Z,7.02
2023-01-09T12:52:18.866Z,7.04
2023-01-09T12:54:34.331Z,7.02
2023-01-09T12:56:43.743Z,7.04
2023-01-09T12:58:54.581Z,7.02
2023-01-09T13:01:03.408Z,7.00
2023-01-09T13:03:19.386Z,6.95
2023-01-09T13:05:29.276Z,6.95
2023-01-09T13:07:42.010Z,6.94
2023-01-09T13:09:56.747Z,6.95
2023-01-09T13:12:09.766Z,7.06
2023-01-09T13:14:24.990Z,7.13
2023-01-09T13:16:36.252Z,7.21
2023-01-09T13:18:46.533Z,7.37
2023-01-09T13:20:56.637Z,7.51
2023-01-09T13:23:03.197Z,7.65
2023-01-09T13:25:36.753Z,7.66
2023-01-09T13:27:43.910Z,7.64
2023-01-09T13:29:56.982Z,7.59
2023-01-09T13:32:32.874Z,7.61
2023-01-09T13:34:40.039Z,7.63
2023-01-09T13:36:54.029Z,7.72
2023-01-09T13:38:59.504Z,7.83
2023-01-09T13:41:29.504Z,7.88
2023-01-09T13:43:58.050Z,7.91
2023-01-09T13:46:03.115Z,7.89
2023-01-09T13:48:41.878Z,7.87
2023-01-09T13:50:51.199Z,7.82
2023-01-09T13:52:56.490Z,7.82
2023-01-09T13:55:36.391Z,7.93
2023-01-09T13:57:48.158Z,8.00
2023-01-09T13:59:53.493Z,7.98
2023-01-09T14:01:58.842Z,7.86
2023-01-09T14:04:47.188Z,7.71
2023-01-09T14:07:24.589Z,7.71
2023-01-09T14:09:30.219Z,7.84
2023-01-09T14:11:35.674Z,7.85
2023-01-09T14:13:48.527Z,7.98
2023-01-09T14:15:56.324Z,8.01
2023-01-09T14:18:04.175Z,8.07
2023-01-09T14:20:28.032Z,7.90
2023-01-09T14:22:45.510Z,7.73
2023-01-09T14:25:10.408Z,7.60
2023-01-09T14:28:11.703Z,7.67
2023-01-09T14:30:33.275Z,7.48
2023-01-09T14:32:59.857Z,7.45
2023-01-09T14:35:25.685Z,7.30
2023-01-09T14:37:32.075Z,7.22
2023-01-09T14:39:38.908Z,7.21
2023-01-09T14:42:06.270Z,7.16
2023-01-09T14:44:28.374Z,7.11
2023-01-09T14:46:42.437Z,7.10
2023-01-09T14:49:04.165Z,7.03
2023-01-09T14:51:17.132Z,6.96
2023-01-09T14:53:25.538Z,6.85
2023-01-09T14:55:39.305Z,6.85
2023-01-09T14:57:44.538Z,6.82
2023-01-09T15:00:02.632Z,6.88
2023-01-09T15:02:14.154Z,6.84
2023-01-09T15:04:31.856Z,6.81
2023-01-09T15:06:40.552Z,6.77
2023-01-09T15:08:48.629Z,6.77
2023-01-09T15:10:56.110Z,6.82
2023-01-09T15:13:04.400Z,6.77
2023-01-09T15:15:15.568Z,6.68
2023-01-09T15:17:25.282Z,6.65
2023-01-09T15:19:32.320Z,6.57
2023-01-09T15:21:37.265Z,6.55
2023-01-09T15:23:42.212Z,6.57
2023-01-09T15:25:48.569Z,6.53
2023-01-09T15:27:57.693Z,6.52
2023-01-09T15:30:19.913Z,6.56
2023-01-09T15:32:31.331Z,6.53
2023-01-09T15:34:37.190Z,6.59
2023-01-09T15:36:42.167Z,6.54
2023-01-09T15:38:48.334Z,6.55
2023-01-09T15:40:57.130Z,6.55
2023-01-09T15:43:01.227Z,6.58
2023-01-09T15:45:07.370Z,6.57
2023-01-09T15:47:19.146Z,6.57
2023-01-09T15:49:27.026Z,6.56
2023-01-09T15:51:32.231Z,6.53
2023-01-09T15:53:37.667Z,6.53
2023-01-09T15:55:42.646Z,6.55
2023-01-09T15:57:55.178Z,6.49
2023-01-09T16:00:20.977Z,6.48
2023-01-09T16:02:40.684Z,6.49
2023-01-09T16:04:50.154Z,6.50
2023-01-09T16:06:56.126Z,6.46
2023-01-09T16:09:03.172Z,6.45
2023-01-09T16:11:11.122Z,6.44
2023-01-09T16:13:17.560Z,6.42
2023-01-09T16:15:23.792Z,6.42
2023-01-09T16:17:31.598Z,6.41
2023-01-09T16:19:54.695Z,6.35
2023-01-09T16:22:01.780Z,6.33
2023-01-09T16:24:27.929Z,6.34
2023-01-09T16:26:34.262Z,6.27
2023-01-09T16:28:41.043Z,6.24
2023-01-09T16:30:55.428Z,6.24
2023-01-09T16:33:02.271Z,6.22
2023-01-09T16:35:20.134Z,6.22
2023-01-09T16:37:26.204Z,6.23
2023-01-09T16:39:31.104Z,6.22
2023-01-09T16:41:48.487Z,6.19
2023-01-09T16:43:54.111Z,6.18
2023-01-09T16:45:59.072Z,6.15
2023-01-09T16:48:05.231Z,6.15
2023-01-09T16:50:16.079Z,6.10
2023-01-09T16:52:21.123Z,6.07
2023-01-09T16:54:26.082Z,6.05
2023-01-09T16:56:33.047Z,6.04
2023-01-09T16:58:39.082Z,6.01
2023-01-09T17:00:44.856Z,6.03
2023-01-09T17:02:50.101Z,6.00
2023-01-09T17:04:56.040Z,5.99
2023-01-09T17:07:04.836Z,6.03
2023-01-09T17:09:12.475Z,5.97
2023-01-09T17:11:24.862Z,5.40
2023-01-09T17:13:30.587Z,4.67
2023-01-09T17:15:35.627Z,4.25
2023-01-09T17:17:40.578Z,4.07
2023-01-09T17:19:46.797Z,3.89
2023-01-09T17:21:52.126Z,3.78
2023-01-09T17:24:12.251Z,3.72
2023-01-09T17:26:36.880Z,3.67
2023-01-09T17:28:46.151Z,3.67
2023-01-09T17:30:51.354Z,3.70
2023-01-09T17:32:56.240Z,3.75
2023-01-09T17:35:01.211Z,3.84
2023-01-09T17:37:06.179Z,3.89
2023-01-09T17:39:17.094Z,3.92
2023-01-09T17:41:22.076Z,3.91
2023-01-09T17:43:27.515Z,3.92
2023-01-09T17:45:32.645Z,3.97
2023-01-09T17:47:37.555Z,4.02
2023-01-09T17:49:42.770Z,4.04
2023-01-09T17:51:48.285Z,4.03
2023-01-09T17:53:53.779Z,4.06
2023-01-09T17:56:01.634Z,4.07
2023-01-09T17:58:06.782Z,4.09
2023-01-09T18:00:27.450Z,4.13
2023-01-09T18:02:32.962Z,4.09
2023-01-09T18:04:39.257Z,4.15
2023-01-09T18:06:44.194Z,4.19
2023-01-09T18:08:49.643Z,4.18
2023-01-09T18:10:54.836Z,4.21
2023-01-09T18:13:02.338Z,4.25
2023-01-09T18:15:08.620Z,4.34
2023-01-09T18:17:15.773Z,4.33
2023-01-09T18:19:20.684Z,4.36
2023-01-09T18:21:27.740Z,4.37
2023-01-09T18:23:34.067Z,4.36
2023-01-09T18:25:42.970Z,4.36
2023-01-09T18:27:47.903Z,4.34
2023-01-09T18:29:57.135Z,4.35
2023-01-09T18:32:02.172Z,4.29
2023-01-09T18:34:07.548Z,4.22
2023-01-09T18:36:13.847Z,4.15
2023-01-09T18:38:18.769Z,4.12
2023-01-09T18:40:23.861Z,4.08
2023-01-09T18:42:29.925Z,4.06
2023-01-09T18:44:34.817Z,4.04
2023-01-09T18:46:44.047Z,4.05
2023-01-09T18:48:49.211Z,4.04
2023-01-09T18:50:54.097Z,4.01
2023-01-09T18:53:01.314Z,4.00
2023-01-09T18:55:06.972Z,3.97
2023-01-09T18:57:12.146Z,4.00
2023-01-09T18:59:17.053Z,4.04
2023-01-09T19:01:22.429Z,4.08
2023-01-09T19:03:32.272Z,4.10
2023-01-09T19:05:37.239Z,4.09
2023-01-09T19:07:42.288Z,4.10
2023-01-09T19:09:47.753Z,4.13
2023-01-09T19:11:52.995Z,4.18
2023-01-09T19:13:57.905Z,4.15
2023-01-09T19:16:03.885Z,4.08
2023-01-09T19:18:09.076Z,4.11
2023-01-09T19:20:16.966Z,4.11
2023-01-09T19:22:21.996Z,4.11
2023-01-09T19:24:27.583Z,4.10
2023-01-09T19:26:33.613Z,4.13
2023-01-09T19:28:44.937Z,4.14
2023-01-09T19:30:50.140Z,4.17
2023-01-09T19:32:55.089Z,4.19
2023-01-09T19:35:00.004Z,4.16
2023-01-09T19:37:09.438Z,4.18
2023-01-09T19:39:14.588Z,4.18
2023-01-09T19:41:21.031Z,4.22
2023-01-09T19:43:29.151Z,4.20
2023-01-09T19:45:34.077Z,4.23
2023-01-09T19:47:39.091Z,4.26
2023-01-09T19:49:44.019Z,4.23
2023-01-09T19:51:50.319Z,4.22
2023-01-09T19:56:12.039Z,4.25
2023-01-09T19:58:16.949Z,4.29
2023-01-09T20:00:22.403Z,4.29
2023-01-09T20:02:28.092Z,4.30
2023-01-09T20:04:33.157Z,4.28
2023-01-09T20:06:41.396Z,4.30
2023-01-09T20:08:47.553Z,4.31
2023-01-09T20:10:55.067Z,4.30
2023-01-09T20:12:59.997Z,4.33
2023-01-09T20:15:05.189Z,4.36
2023-01-09T20:17:10.146Z,4.35
2023-01-09T20:19:16.284Z,4.31
2023-01-09T20:23:32.513Z,4.37
2023-01-09T20:25:37.407Z,4.36
2023-01-09T20:27:44.908Z,4.36
2023-01-09T20:29:50.727Z,4.39
2023-01-09T20:31:56.016Z,4.43
2023-01-09T20:34:02.170Z,4.47
2023-01-09T20:36:10.290Z,4.51
2023-01-09T20:38:16.314Z,4.50
2023-01-09T20:40:21.548Z,4.47
2023-01-09T20:42:26.538Z,4.49
2023-01-09T20:44:34.032Z,4.50
2023-01-09T20:46:42.595Z,4.48
2023-01-09T20:48:48.255Z,4.49
2023-01-09T20:50:53.240Z,4.53
2023-01-09T20:52:58.147Z,4.53
2023-01-09T20:55:05.757Z,4.52
2023-01-09T20:57:10.760Z,4.56
2023-01-09T20:59:20.300Z,4.63
2023-01-09T21:01:29.323Z,4.63
2023-01-09T21:03:34.225Z,4.60
2023-01-09T21:05:43.229Z,4.61
2023-01-09T21:07:48.164Z,4.58
2023-01-09T21:09:53.437Z,4.56
2023-01-09T21:11:58.330Z,4.58
2023-01-09T21:14:03.321Z,4.54
2023-01-09T21:16:13.331Z,4.55
2023-01-09T21:18:20.951Z,4.58
2023-01-09T21:20:25.985Z,4.61
2023-01-09T21:22:30.938Z,4.60
2023-01-09T21:24:35.921Z,4.61
2023-01-09T21:26:40.848Z,4.59
2023-01-09T21:28:49.914Z,4.58
2023-01-09T21:30:54.828Z,4.55
2023-01-09T21:32:59.804Z,4.58
2023-01-09T21:35:08.431Z,4.63
2023-01-09T21:37:13.410Z,4.59
2023-01-09T21:39:19.106Z,4.56
2023-01-09T21:41:37.050Z,4.53
2023-01-09T21:43:54.459Z,4.52
2023-01-09T21:46:15.438Z,4.51
2023-01-09T21:48:20.348Z,4.46
2023-01-09T21:50:27.894Z,4.39
2023-01-09T21:52:32.827Z,4.38
2023-01-09T21:54:37.955Z,4.41
2023-01-09T21:56:42.909Z,4.36
2023-01-09T21:58:49.247Z,4.31
2023-01-09T22:01:01.620Z,4.28
2023-01-09T22:03:09.285Z,4.26
2023-01-09T22:05:14.191Z,4.27
2023-01-09T22:07:22.018Z,4.24
2023-01-09T22:09:27.252Z,4.26
2023-01-09T22:11:32.184Z,4.27
2023-01-09T22:13:37.080Z,4.29
2023-01-09T22:15:42.247Z,4.28
2023-01-09T22:17:47.155Z,4.29
2023-01-09T22:19:52.048Z,4.31
2023-01-09T22:21:57.680Z,4.33
2023-01-09T22:24:06.478Z,4.36
2023-01-09T22:26:13.508Z,4.40
2023-01-09T22:28:19.612Z,4.41
2023-01-09T22:30:25.060Z,4.43
2023-01-09T22:32:30.398Z,4.47
2023-01-09T22:34:35.326Z,4.49
2023-01-09T22:36:40.718Z,4.50
2023-01-09T22:38:46.064Z,4.49
2023-01-09T22:40:53.851Z,4.53
2023-01-09T22:42:59.398Z,4.55
2023-01-09T22:45:04.357Z,4.57
2023-01-09T22:47:09.610Z,4.55
2023-01-09T22:49:15.017Z,4.57
2023-01-09T22:51:22.632Z,4.55
2023-01-09T22:53:27.568Z,4.57
2023-01-09T22:55:32.891Z,4.56
2023-01-09T22:57:40.587Z,4.54
2023-01-09T22:59:45.519Z,4.57
2023-01-09T23:01:50.742Z,4.62
2023-01-09T23:03:55.755Z,4.64
2023-01-09T23:06:04.526Z,4.66
2023-01-09T23:08:09.742Z,4.65
2023-01-09T23:10:15.017Z,4.66
2023-01-09T23:12:20.350Z,4.69
2023-01-09T23:14:28.235Z,4.66
2023-01-09T23:16:33.120Z,4.71
2023-01-09T23:18:38.230Z,4.64
2023-01-09T23:20:43.911Z,4.64
2023-01-09T23:22:48.778Z,4.58
2023-01-09T23:24:54.283Z,4.55
2023-01-09T23:27:00.814Z,4.48
2023-01-09T23:29:07.423Z,4.45
2023-01-09T23:31:15.462Z,4.49
2023-01-09T23:33:21.170Z,4.50
2023-01-09T23:35:26.077Z,4.49
2023-01-09T23:37:31.495Z,4.46
2023-01-09T23:39:36.327Z,4.38
2023-01-09T23:41:54.072Z,4.41
2023-01-09T23:43:59.280Z,4.38
2023-01-09T23:46:04.279Z,4.43
2023-01-09T23:48:16.048Z,4.38
2023-01-09T23:50:21.181Z,4.39
2023-01-09T23:52:26.002Z,4.39
2023-01-09T23:54:31.241Z,4.40
2023-01-09T23:56:36.143Z,4.38
2023-01-09T23:58:41.336Z,4.44
